TimeCDT,TemperatureF,Dew PointF,Humidity,Sea Level PressureIn,VisibilityMPH,Wind Direction,Wind SpeedMPH,Gust SpeedMPH,PrecipitationIn,Events,Conditions,WindDirDegrees,DateUTC
3:13 AM,6.8,3.2,85,29.98,10.0,Calm,Calm,-,N/A,,Clear,0,2013-04-20 08:13:00
3:33 AM,6.8,3.2,85,29.99,10.0,Calm,Calm,-,N/A,,Clear,0,2013-04-20 08:33:00
3:53 AM,8.6,5.0,85,30.00,10.0,Calm,Calm,-,N/A,,Clear,0,2013-04-20 08:53:00
4:13 AM,6.8,1.4,79,30.02,10.0,Calm,Calm,-,N/A,,Clear,0,2013-04-20 09:13:00
4:33 AM,1.4,-2.2,85,30.02,10.0,Calm,Calm,-,N/A,,Clear,0,2013-04-20 09:33:00
4:53 AM,1.4,-2.2,85,30.03,10.0,Calm,Calm,-,N/A,,Clear,0,2013-04-20 09:53:00
5:13 AM,3.2,-0.4,85,30.04,10.0,Calm,Calm,-,N/A,,Clear,0,2013-04-20 10:13:00
5:33 AM,3.2,-0.4,85,30.05,10.0,Calm,Calm,-,N/A,,Clear,0,2013-04-20 10:33:00
5:53 AM,3.2,-0.4,85,30.05,10.0,Calm,Calm,-,N/A,,Clear,0,2013-04-20 10:53:00
6:13 AM,1.4,-2.2,85,30.06,10.0,Calm,Calm,-,N/A,,Clear,0,2013-04-20 11:13:00
6:33 AM,-2.2,-7.6,78,30.07,10.0,Calm,Calm,-,N/A,,Clear,0,2013-04-20 11:33:00
6:53 AM,-0.4,-4.0,85,30.08,10.0,Calm,Calm,-,N/A,,Clear,0,2013-04-20 11:53:00
7:13 AM,1.4,-4.0,78,30.09,10.0,Calm,Calm,-,N/A,,Clear,0,2013-04-20 12:13:00
7:33 AM,5.0,1.4,85,30.10,10.0,Calm,Calm,-,N/A,,Clear,0,2013-04-20 12:33:00
7:53 AM,6.8,3.2,85,30.11,10.0,Calm,Calm,-,N/A,,Clear,0,2013-04-20 12:53:00
8:13 AM,10.4,6.8,85,30.13,10.0,Calm,Calm,-,N/A,,Clear,0,2013-04-20 13:13:00
8:33 AM,17.6,5.0,58,30.14,10.0,Calm,Calm,-,N/A,,Clear,0,2013-04-20 13:33:00
8:53 AM,17.6,3.2,53,30.14,10.0,Calm,Calm,-,N/A,,Clear,0,2013-04-20 13:53:00
9:13 AM,17.6,1.4,49,30.15,10.0,Calm,Calm,-,N/A,,Clear,0,2013-04-20 14:13:00
9:33 AM,19.4,1.4,46,30.15,10.0,Calm,Calm,-,N/A,,Clear,0,2013-04-20 14:33:00
9:53 AM,21.2,1.4,42,30.16,10.0,WNW,3.5,-,N/A,,Clear,290,2013-04-20 14:53:00
10:13 AM,21.2,1.4,42,30.16,10.0,WNW,4.6,-,N/A,,Clear,290,2013-04-20 15:13:00
10:33 AM,23.0,1.4,39,30.17,10.0,West,3.5,-,N/A,,Clear,270,2013-04-20 15:33:00
10:53 AM,24.8,1.4,36,30.18,10.0,West,3.5,-,N/A,,Clear,270,2013-04-20 15:53:00
11:13 AM,26.6,1.4,34,30.18,10.0,West,3.5,-,N/A,,Clear,280,2013-04-20 16:13:00
11:33 AM,26.6,1.4,34,30.19,10.0,NNW,4.6,-,N/A,,Clear,330,2013-04-20 16:33:00
11:53 AM,28.4,1.4,31,30.19,10.0,WNW,5.8,-,N/A,,Clear,290,2013-04-20 16:53:00
12:13 PM,28.4,1.4,31,30.19,10.0,Calm,Calm,-,N/A,,Clear,0,2013-04-20 17:13:00
12:33 PM,28.4,1.4,31,30.19,10.0,Calm,Calm,-,N/A,,Clear,0,2013-04-20 17:33:00
12:53 PM,30.2,1.4,29,30.19,10.0,WNW,6.9,-,N/A,,Clear,300,2013-04-20 17:53:00
1:13 PM,30.2,1.4,29,30.18,10.0,North,3.5,-,N/A,,Clear,360,2013-04-20 18:13:00
1:33 PM,30.2,1.4,29,30.18,10.0,Calm,Calm,-,N/A,,Clear,0,2013-04-20 18:33:00
1:53 PM,32.0,3.2,30,30.18,10.0,Calm,Calm,-,N/A,,Clear,0,2013-04-20 18:53:00
2:13 PM,32.0,1.4,27,30.18,10.0,West,6.9,-,N/A,,Clear,280,2013-04-20 19:13:00
2:33 PM,33.8,1.4,25,30.18,10.0,Calm,Calm,-,N/A,,Clear,0,2013-04-20 19:33:00
2:53 PM,33.8,-0.4,23,30.18,10.0,SSE,3.5,-,N/A,,Clear,150,2013-04-20 19:53:00
3:13 PM,35.6,1.4,24,30.18,10.0,East,3.5,-,N/A,,Clear,80,2013-04-20 20:13:00
3:33 PM,35.6,-0.4,22,30.18,10.0,ENE,4.6,-,N/A,,Clear,60,2013-04-20 20:33:00
3:53 PM,35.6,1.4,24,30.19,10.0,South,4.6,-,N/A,,Clear,170,2013-04-20 20:53:00
4:13 PM,37.4,-0.4,20,30.19,10.0,South,5.8,-,N/A,,Clear,180,2013-04-20 21:13:00
4:33 PM,37.4,-0.4,20,30.18,10.0,SE,3.5,-,N/A,,Clear,140,2013-04-20 21:33:00
4:53 PM,37.4,-0.4,20,30.18,10.0,South,4.6,-,N/A,,Clear,190,2013-04-20 21:53:00
5:13 PM,37.4,-0.4,20,30.18,10.0,SSE,8.1,-,N/A,,Clear,160,2013-04-20 22:13:00
5:34 PM,37.4,1.4,22,30.18,10.0,SSE,8.1,-,N/A,,Clear,150,2013-04-20 22:34:00
5:53 PM,37.4,-0.4,20,30.18,10.0,WSW,3.5,-,N/A,,Clear,250,2013-04-20 22:53:00
6:13 PM,37.4,1.4,22,30.18,10.0,SE,5.8,-,N/A,,Clear,140,2013-04-20 23:13:00
6:33 PM,35.6,1.4,24,30.18,10.0,Calm,Calm,-,N/A,,Clear,0,2013-04-20 23:33:00
6:53 PM,35.6,3.2,26,30.18,10.0,SSE,4.6,-,N/A,,Clear,150,2013-04-20 23:53:00
7:13 PM,35.6,1.4,24,30.18,10.0,South,5.8,-,N/A,,Clear,170,2013-04-21 00:13:00
7:33 PM,33.8,3.2,28,30.19,10.0,SSE,4.6,-,N/A,,Clear,160,2013-04-21 00:33:00
7:53 PM,33.8,3.2,28,30.20,10.0,SSE,3.5,-,N/A,,Clear,160,2013-04-21 00:53:00
8:13 PM,30.2,8.6,40,30.20,10.0,SSE,3.5,-,N/A,,Clear,150,2013-04-21 01:13:00
8:33 PM,30.2,6.8,37,30.21,10.0,SE,3.5,-,N/A,,Clear,140,2013-04-21 01:33:00
8:53 PM,30.2,6.8,37,30.21,10.0,SE,4.6,-,N/A,,Clear,140,2013-04-21 01:53:00
9:13 PM,28.4,6.8,40,30.21,10.0,SE,4.6,-,N/A,,Clear,140,2013-04-21 02:13:00
9:53 PM,28.4,5.0,37,30.22,10.0,SE,4.6,-,N/A,,Clear,140,2013-04-21 02:53:00
10:13 PM,28.4,3.2,34,30.22,10.0,SE,4.6,-,N/A,,Clear,130,2013-04-21 03:13:00
10:33 PM,28.4,3.2,34,30.22,10.0,SE,4.6,-,N/A,,Clear,130,2013-04-21 03:33:00
10:53 PM,26.6,5.0,40,30.22,10.0,SE,5.8,-,N/A,,Clear,140,2013-04-21 03:53:00
11:13 PM,26.6,5.0,40,30.22,10.0,SSE,5.8,-,N/A,,Clear,150,2013-04-21 04:13:00
11:33 PM,26.6,6.8,43,30.23,10.0,SSE,5.8,-,N/A,,Clear,150,2013-04-21 04:33:00
11:53 PM,26.6,6.8,43,30.23,10.0,SSE,6.9,-,N/A,,Clear,150,2013-04-21 04:53:00